Space — ZCTI8 — position and weather

sailwx.info

Track history (hours):
 
Tides and Currents Weather Stations Pressure Air Temp Water Temp Dewpoint Dewpoint Depression Visibility Wind Speed Wind Dir Waves Ship Positions

Space

Last reported at 2016-May-03 17:28 UTC. Time now 2016-May-03 18:14 UTC.
Position N 43°42' E 007°17'.

Length 45 m; draft 2.7 m.

Type: Pleasure craft. MMSI: 319917000.

Date/timePositionNaut miles runAvg speedWind from/ knotsBaromVisibWave heightAir tempDewpointWater temp
2016-May-03 17:28N 43°42' E 007°17'0 0.0
2016-May-03 16:28N 43°42' E 007°17'0 0.0
2016-May-03 15:28N 43°42' E 007°17'0 0.0
2016-May-03 14:28N 43°42' E 007°17'0 0.0
2016-May-03 13:28N 43°42' E 007°17'0 0.0
2016-May-03 12:22N 43°42' E 007°17'0 0.0
2016-May-03 11:28N 43°42' E 007°17'0 0.0
2016-May-02 17:33N 43°42' E 007°17'5 5.3
2016-May-02 16:33N 43°37' E 007°13'  
2016-Apr-26 07:33N 43°24' E 006°54'1313.3
2016-Apr-26 06:33N 43°31' E 007°08'1413.0
2016-Apr-26 05:30N 43°41' E 007°22'4 0.2
2016-Apr-25 08:26N 43°44' E 007°26'1011.2
2016-Apr-25 07:33N 43°37' E 007°16'8 6.9
2016-Apr-25 06:25N 43°34' E 007°07'0 0.0
2016-Apr-25 05:19N 43°34' E 007°07'0 0.0
2016-Apr-25 04:31N 43°34' E 007°07'0 0.0
2016-Apr-25 03:25N 43°34' E 007°07'0 0.0
2016-Apr-25 02:31N 43°34' E 007°07'0 0.0
2016-Apr-25 01:25N 43°34' E 007°07'0 0.0
2016-Apr-25 00:31N 43°34' E 007°07'0 0.0
2016-Apr-24 23:31N 43°34' E 007°07'0 0.1
2016-Apr-24 22:31N 43°34' E 007°07'0 0.0
2016-Apr-24 21:19N 43°34' E 007°07'0 0.0
2016-Apr-24 20:31N 43°34' E 007°07'0 0.0
2016-Apr-24 19:31N 43°34' E 007°07'0 0.0
2016-Apr-24 18:31N 43°34' E 007°07'0 0.0
2016-Apr-24 17:31N 43°34' E 007°07'2 2.1
2016-Apr-24 16:33N 43°35' E 007°09'1 0.6
2016-Apr-24 15:32N 43°35' E 007°08'0 0.0
2016-Apr-24 14:32N 43°35' E 007°08'0 0.0
2016-Apr-24 13:32N 43°35' E 007°08'0 0.0
2016-Apr-24 12:32N 43°35' E 007°08'0 0.0
2016-Apr-24 11:32N 43°35' E 007°08'0 0.0
2016-Apr-24 10:32N 43°35' E 007°08'3 2.8
2016-Apr-24 09:33N 43°36' E 007°11'1111.5
2016-Apr-24 08:33N 43°42' E 007°25'  
Track history (hours):
 
Tides and Currents Weather Stations Pressure Air Temp Water Temp Dewpoint Dewpoint Depression Visibility Wind Speed Wind Dir Waves Ship Positions

Space

Last reported at 2016-May-03 17:28 UTC. Time now 2016-May-03 18:14 UTC.
Position N 43°42' E 007°17'.

Length 45 m; draft 2.7 m.

Type: Pleasure craft. MMSI: 319917000.

Date/timePositionNaut miles runAvg speedWind from/ knotsBaromVisibWave heightAir tempDewpointWater temp
2016-May-03 17:28N 43°42' E 007°17'0 0.0
2016-May-03 16:28N 43°42' E 007°17'0 0.0
2016-May-03 15:28N 43°42' E 007°17'0 0.0
2016-May-03 14:28N 43°42' E 007°17'0 0.0
2016-May-03 13:28N 43°42' E 007°17'0 0.0
2016-May-03 12:22N 43°42' E 007°17'0 0.0
2016-May-03 11:28N 43°42' E 007°17'0 0.0
2016-May-02 17:33N 43°42' E 007°17'5 5.3
2016-May-02 16:33N 43°37' E 007°13'  
2016-Apr-26 07:33N 43°24' E 006°54'1313.3
2016-Apr-26 06:33N 43°31' E 007°08'1413.0
2016-Apr-26 05:30N 43°41' E 007°22'4 0.2
2016-Apr-25 08:26N 43°44' E 007°26'1011.2
2016-Apr-25 07:33N 43°37' E 007°16'8 6.9
2016-Apr-25 06:25N 43°34' E 007°07'0 0.0
2016-Apr-25 05:19N 43°34' E 007°07'0 0.0
2016-Apr-25 04:31N 43°34' E 007°07'0 0.0
2016-Apr-25 03:25N 43°34' E 007°07'0 0.0
2016-Apr-25 02:31N 43°34' E 007°07'0 0.0
2016-Apr-25 01:25N 43°34' E 007°07'0 0.0
2016-Apr-25 00:31N 43°34' E 007°07'0 0.0
2016-Apr-24 23:31N 43°34' E 007°07'0 0.1
2016-Apr-24 22:31N 43°34' E 007°07'0 0.0
2016-Apr-24 21:19N 43°34' E 007°07'0 0.0
2016-Apr-24 20:31N 43°34' E 007°07'0 0.0
2016-Apr-24 19:31N 43°34' E 007°07'0 0.0
2016-Apr-24 18:31N 43°34' E 007°07'0 0.0
2016-Apr-24 17:31N 43°34' E 007°07'2 2.1
2016-Apr-24 16:33N 43°35' E 007°09'1 0.6
2016-Apr-24 15:32N 43°35' E 007°08'0 0.0
2016-Apr-24 14:32N 43°35' E 007°08'0 0.0
2016-Apr-24 13:32N 43°35' E 007°08'0 0.0
2016-Apr-24 12:32N 43°35' E 007°08'0 0.0
2016-Apr-24 11:32N 43°35' E 007°08'0 0.0
2016-Apr-24 10:32N 43°35' E 007°08'3 2.8
2016-Apr-24 09:33N 43°36' E 007°11'1111.5
2016-Apr-24 08:33N 43°42' E 007°25'  

Dump ship's entire track history